Terminal Aerodrome Forecast
Issued by NWS

Home | Current Version | Previous Version | Text Only | Print | Product List | Glossary On
Versions: 1 2 3 4 5 6 7 8 9 10 11
000
FTUS45 KGJT 132329
TAFEGE
TAF
KEGE 132329Z 1400/1424 00000KT P6SM OVC090
     FM140600 VRB03KT 2SM -SHSN BKN025 OVC060
     FM141200 10004KT 5SM -SHSN FEW040 SCT070
     FM141700 01005KT P6SM FEW050 SCT110
      AMD LTD TO CLD VIS AND WIND 1402/1414=

USA.gov is the U.S. government's official web portal to all federal, state and local government web resources and services.